logo
Search for airport 
image banner adimage banner adimage banner ad
image banner ad

EPLK - Lask

Located in , Poland

ICAO - EPLK, IATA -

Data provided by Airmate  

General information

Coordinates: N51°33'4" E19°10'57"
Elevation is 639 feet MSL.
Magnetic variation is 6.0000° East
View others Airports in Lodz

Operational data

Special qualification required
Current time UTC:
Current local time:
Weather
TAF: TAF EPLK 122300Z 1300/1312 09006KT CAVOK TEMPO 1300/1304 VRB015G35KT 4000 TSRA BKN040CB PROB30 1303/1306 BKN006
View NOTAMs / SUP AIP / TFR affecting this airport [VIEW]
Communications frequencies: [VIEW]

Runways:

RWY identifierQFULength (ft)Width (ft)SurfaceLDA (ft)
10107°9843197CONC9843
28287°9843197CONC9843

Airport contact information

Address: Poland

Satellite view of EPLK